Time;durP1;ratioP1;P1;durP2;ratioP2;P2;SDS_P1;SDS_P2;PMS_P1;PMS_P2;Temp;Humidity;BMP_temperature;BMP_pressure;BME280_temperature;BME280_humidity;BME280_pressure;Samples;Min_cycle;Max_cycle;Signal;HPM_P1;HPM_P2
2021/06/19 00:00:00;;;;;;;5.75;3.40;;;;;;;27.29;40.27;99649.53;4482697;32;34687;-67
2021/06/19 00:02:27;;;;;;;6.57;3.35;;;;;;;27.28;40.03;99648.69;4483888;32;33098;-66
2021/06/19 00:04:55;;;;;;;6.53;3.83;;;;;;;27.28;39.96;99651.44;4483487;32;33730;-66
2021/06/19 00:07:23;;;;;;;7.53;3.75;;;;;;;27.27;39.94;99651.66;4482804;32;33548;-67
2021/06/19 00:09:51;;;;;;;9.07;4.00;;;;;;;27.27;40.00;99654.41;4484005;32;33133;-66
2021/06/19 00:12:19;;;;;;;9.65;4.22;;;;;;;27.27;39.98;99647.00;4483162;32;33237;-66
2021/06/19 00:14:46;;;;;;;9.45;3.80;;;;;;;27.27;40.03;99649.75;4484041;32;33764;-66
2021/06/19 00:17:14;;;;;;;5.70;3.30;;;;;;;27.27;40.02;99646.19;4483148;32;35125;-67
2021/06/19 00:19:42;;;;;;;7.55;3.17;;;;;;;27.26;39.99;99650.84;4483067;32;34454;-67
2021/06/19 00:22:10;;;;;;;9.02;4.40;;;;;;;27.26;40.01;99655.50;4483637;32;33208;-67
2021/06/19 00:24:38;;;;;;;7.65;4.00;;;;;;;27.25;39.96;99645.63;4483882;32;33722;-67
2021/06/19 00:27:06;;;;;;;8.57;3.80;;;;;;;27.23;39.99;99643.13;4483187;32;34817;-66
2021/06/19 00:29:34;;;;;;;9.18;3.83;;;;;;;27.25;39.98;99642.87;4483162;32;34449;-67
2021/06/19 00:32:02;;;;;;;9.43;3.65;;;;;;;27.25;40.01;99642.87;4483244;32;33358;-66
2021/06/19 00:34:30;;;;;;;10.50;3.75;;;;;;;27.25;40.04;99637.41;4483879;32;33718;-67
2021/06/19 00:36:57;;;;;;;7.93;3.85;;;;;;;27.24;40.04;99633.84;4482434;32;33612;-67
2021/06/19 00:39:25;;;;;;;8.38;3.72;;;;;;;27.25;39.96;99631.94;4483275;32;34543;-66
2021/06/19 00:41:52;;;;;;;7.62;3.97;;;;;;;27.25;39.99;99631.94;4483671;32;34637;-67
2021/06/19 00:44:20;;;;;;;9.70;3.50;;;;;;;27.24;39.90;99630.28;4483747;32;33785;-66
2021/06/19 00:46:54;;;;;;;7.05;4.18;;;;;;;27.24;39.85;99624.81;4483484;32;33964;-67
2021/06/19 00:49:22;;;;;;;6.32;3.60;;;;;;;27.25;39.92;99626.47;4483442;32;33822;-67
2021/06/19 00:51:50;;;;;;;9.15;4.10;;;;;;;27.23;39.83;99618.47;4483280;32;33221;-66
2021/06/19 00:54:17;;;;;;;6.93;3.45;;;;;;;27.23;39.79;99626.69;4482404;32;33751;-66
2021/06/19 00:56:45;;;;;;;6.75;4.10;;;;;;;27.22;39.85;99622.31;4482401;32;33769;-67
2021/06/19 00:59:13;;;;;;;6.93;3.53;;;;;;;27.23;39.85;99625.88;4481987;32;34478;-66
2021/06/19 01:01:40;;;;;;;6.43;3.67;;;;;;;27.21;39.86;99621.47;4482267;32;33235;-67
2021/06/19 01:04:08;;;;;;;7.65;3.65;;;;;;;27.20;39.87;99619.84;4482282;32;33701;-67
2021/06/19 01:06:36;;;;;;;7.70;3.92;;;;;;;27.20;39.94;99616.28;4483209;32;34993;-67
2021/06/19 01:09:08;;;;;;;6.15;3.60;;;;;;;27.20;39.94;99625.31;4481779;32;34378;-65
2021/06/19 01:11:37;;;;;;;7.37;3.78;;;;;;;27.19;39.95;99618.19;4483275;32;33220;-67
2021/06/19 01:14:04;;;;;;;8.05;3.92;;;;;;;27.20;39.98;99621.75;4483204;32;33740;-67
2021/06/19 01:16:33;;;;;;;8.50;3.72;;;;;;;27.20;40.04;99619.00;4483290;32;33608;-67
2021/06/19 01:19:00;;;;;;;7.12;3.50;;;;;;;27.19;40.00;99620.91;4483288;32;33727;-65
2021/06/19 01:21:29;;;;;;;6.80;3.60;;;;;;;27.21;39.98;99615.19;4483122;32;33034;-67
2021/06/19 01:23:57;;;;;;;7.25;3.85;;;;;;;27.20;40.03;99613.53;4483180;32;33833;-67
2021/06/19 01:26:26;;;;;;;6.20;3.97;;;;;;;27.20;39.99;99613.53;4483515;32;33879;-66
2021/06/19 01:28:54;;;;;;;7.53;4.50;;;;;;;27.20;40.02;99608.06;4484730;32;33741;-67
2021/06/19 01:31:22;;;;;;;5.25;3.60;;;;;;;27.20;39.85;99614.34;4485536;32;34008;-67
2021/06/19 01:33:50;;;;;;;6.57;3.72;;;;;;;27.19;39.88;99615.44;4483963;32;33841;-67
2021/06/19 01:36:19;;;;;;;6.40;3.90;;;;;;;27.18;39.94;99611.03;4484893;32;33971;-67
2021/06/19 01:38:48;;;;;;;9.18;4.30;;;;;;;27.18;39.98;99613.75;4485078;32;33705;-67
2021/06/19 01:41:16;;;;;;;;;;;;;;;27.18;40.07;99608.28;4485240;32;33162;-67
2021/06/19 01:43:44;;;;;;;9.85;3.75;;;;;;;27.30;39.71;99612.81;4485186;32;34071;-67
2021/06/19 01:46:12;;;;;;;6.65;3.72;;;;;;;27.21;39.95;99609.69;4484663;32;33847;-66
2021/06/19 01:48:40;;;;;;;8.02;3.62;;;;;;;27.18;40.00;99608.28;4484894;32;34626;-66
2021/06/19 01:51:09;;;;;;;7.28;3.65;;;;;;;27.16;40.07;99607.72;4485041;32;33090;-66
2021/06/19 01:53:40;;;;;;;6.82;3.58;;;;;;;27.16;39.97;99605.00;4485029;32;33626;-66
2021/06/19 01:56:09;;;;;;;6.87;4.03;;;;;;;27.16;40.01;99607.72;4484463;32;34513;-66
2021/06/19 01:58:37;;;;;;;8.13;3.62;;;;;;;27.15;40.10;99605.25;4484955;32;33730;-67
2021/06/19 02:01:07;;;;;;;7.90;3.70;;;;;;;27.15;40.10;99608.81;4485092;32;32558;-67
2021/06/19 02:03:37;;;;;;;5.62;3.42;;;;;;;27.14;40.20;99609.91;4484493;32;34597;-67
2021/06/19 02:06:07;;;;;;;8.10;3.60;;;;;;;27.15;40.23;99614.28;4484548;32;33809;-67
2021/06/19 02:08:35;;;;;;;9.05;3.55;;;;;;;27.17;40.20;99630.47;4484903;32;34664;-66
2021/06/19 02:11:03;;;;;;;8.15;3.67;;;;;;;27.17;40.25;99624.97;4484905;32;33986;-66
2021/06/19 02:13:31;;;;;;;6.28;3.65;;;;;;;27.17;40.13;99624.97;4484813;32;34702;-67
2021/06/19 02:15:58;;;;;;;7.80;3.78;;;;;;;27.15;40.17;99627.16;4484564;32;34691;-67
2021/06/19 02:18:26;;;;;;;5.90;3.72;;;;;;;27.16;40.37;99624.16;4484737;32;33949;-67
2021/06/19 02:20:54;;;;;;;8.13;4.15;;;;;;;27.16;40.43;99623.34;4484935;32;33358;-67
2021/06/19 02:23:23;;;;;;;5.32;3.55;;;;;;;27.15;40.39;99619.78;4484786;32;34464;-66
2021/06/19 02:25:54;;;;;;;8.27;3.85;;;;;;;27.13;40.40;99624.66;4484363;32;33798;-67
2021/06/19 02:28:23;;;;;;;7.65;4.28;;;;;;;27.14;40.50;99623.59;4483624;32;33758;-67
2021/06/19 02:30:58;;;;;;;8.45;4.37;;;;;;;27.13;40.35;99624.66;4484651;32;33354;-66
2021/06/19 02:33:26;;;;;;;7.20;3.87;;;;;;;27.15;40.32;99627.16;4484709;32;35233;-67
2021/06/19 02:35:54;;;;;;;7.22;3.75;;;;;;;27.14;40.35;99623.59;4483166;32;33947;-66
2021/06/19 02:38:21;;;;;;;7.00;4.35;;;;;;;27.13;40.30;99626.56;4484532;32;33682;-66
2021/06/19 02:40:49;;;;;;;5.65;3.90;;;;;;;27.13;40.43;99629.31;4484651;32;33297;-67
2021/06/19 02:43:17;;;;;;;6.37;3.85;;;;;;;27.13;40.36;99630.13;4484857;32;34508;-66
2021/06/19 02:45:45;;;;;;;5.93;3.50;;;;;;;27.13;40.38;99635.63;4484122;32;34426;-66
2021/06/19 02:48:13;;;;;;;7.05;4.20;;;;;;;27.13;40.46;99632.88;4484581;32;34716;-67
2021/06/19 02:50:41;;;;;;;6.80;4.45;;;;;;;27.13;40.40;99637.53;4483409;32;33922;-66
2021/06/19 02:53:09;;;;;;;6.20;3.95;;;;;;;27.13;40.38;99640.28;4484665;32;33770;-67
2021/06/19 02:55:37;;;;;;;6.03;3.35;;;;;;;27.12;40.47;99639.44;4483110;32;34692;-67
2021/06/19 02:58:05;;;;;;;5.57;3.78;;;;;;;27.12;40.42;99636.72;4483180;32;34386;-67
2021/06/19 03:00:33;;;;;;;6.25;4.05;;;;;;;27.11;40.45;99632.31;4483070;32;34466;-67
2021/06/19 03:03:01;;;;;;;6.05;3.78;;;;;;;27.12;40.42;99633.97;4484151;32;34589;-67
2021/06/19 03:05:29;;;;;;;7.60;4.18;;;;;;;27.12;40.51;99636.72;4484243;32;33946;-67
2021/06/19 03:07:57;;;;;;;8.65;4.55;;;;;;;27.11;40.56;99626.84;4484324;32;33640;-66
2021/06/19 03:10:27;;;;;;;8.50;4.30;;;;;;;27.12;40.53;99631.22;4484504;32;34115;-67
2021/06/19 03:12:55;;;;;;;;;;;;;;;27.11;40.63;99631.50;4470420;32;33584;-67
2021/06/19 03:15:23;;;;;;;8.82;4.78;;;;;;;27.24;40.47;99639.31;4484258;32;34134;-65
2021/06/19 03:17:50;;;;;;;8.52;4.72;;;;;;;27.15;40.64;99628.00;4484672;32;33668;-66
2021/06/19 03:20:18;;;;;;;8.48;4.20;;;;;;;27.11;40.75;99637.78;4484268;32;34337;-66
2021/06/19 03:22:57;;;;;;;7.07;3.95;;;;;;;27.11;40.84;99635.06;4482969;32;33772;-66
2021/06/19 03:25:27;;;;;;;7.40;4.00;;;;;;;27.13;40.83;99637.53;4457700;32;33912;-66
2021/06/19 03:27:55;;;;;;;6.65;4.15;;;;;;;27.10;40.86;99630.66;4484362;32;34619;-66
2021/06/19 03:30:23;;;;;;;8.38;4.68;;;;;;;27.09;40.91;99630.91;4483041;32;34347;-67
2021/06/19 03:32:51;;;;;;;9.00;4.40;;;;;;;27.08;40.98;99632.81;4469745;32;34535;-68
2021/06/19 03:35:18;;;;;;;10.05;4.47;;;;;;;27.10;40.89;99636.16;4480999;32;33777;-64
2021/06/19 03:37:47;;;;;;;10.30;4.70;;;;;;;27.11;40.86;99626.00;4489775;31;33945;-64
2021/06/19 03:40:16;;;;;;;7.53;4.70;;;;;;;27.12;40.86;99638.62;4500147;31;33238;-65
2021/06/19 03:42:49;;;;;;;8.18;4.70;;;;;;;27.10;40.90;99635.31;4486865;31;34629;-64
2021/06/19 03:45:17;;;;;;;12.10;4.78;;;;;;;27.10;40.98;99636.16;4484082;32;33864;-64
2021/06/19 03:47:45;;;;;;;10.05;4.40;;;;;;;27.11;40.98;99642.44;4482843;32;33789;-64
2021/06/19 03:50:15;;;;;;;6.60;4.37;;;;;;;27.12;40.93;99641.34;4483126;32;33287;-65
2021/06/19 03:52:48;;;;;;;9.45;4.60;;;;;;;27.12;40.95;99644.94;4483686;32;35138;-64
2021/06/19 03:55:16;;;;;;;10.60;4.62;;;;;;;27.13;41.04;99641.09;4483770;32;34739;-64
2021/06/19 03:57:44;;;;;;;7.87;4.47;;;;;;;27.14;41.00;99645.50;4484121;32;34378;-65
2021/06/19 04:00:13;;;;;;;6.82;4.45;;;;;;;27.14;41.11;99639.19;4483970;32;33300;-64
2021/06/19 04:02:42;;;;;;;10.30;4.65;;;;;;;27.13;41.22;99640.28;4483499;32;33840;-65
2021/06/19 04:05:10;;;;;;;11.90;4.60;;;;;;;27.13;41.22;99632.06;4475132;32;34800;-65
2021/06/19 04:07:38;;;;;;;9.30;4.32;;;;;;;27.14;41.07;99640.03;4483317;32;34366;-64
2021/06/19 04:10:07;;;;;;;7.65;4.47;;;;;;;27.15;41.02;99638.94;4483620;32;34987;-64
2021/06/19 04:12:34;;;;;;;8.35;4.87;;;;;;;27.18;41.00;99643.06;4477040;32;34744;-64
2021/06/19 04:15:02;;;;;;;7.90;4.35;;;;;;;27.19;41.10;99640.09;4483477;32;33959;-64
2021/06/19 04:17:30;;;;;;;7.75;4.37;;;;;;;27.18;41.17;99637.59;4483890;32;34628;-64
2021/06/19 04:19:58;;;;;;;6.70;4.53;;;;;;;27.17;41.16;99639.50;4483314;32;34018;-65
2021/06/19 04:22:25;;;;;;;7.62;4.40;;;;;;;27.20;41.04;99643.66;4483172;32;33769;-64
2021/06/19 04:24:53;;;;;;;7.47;4.62;;;;;;;27.19;41.18;99644.75;4483023;32;33818;-64
2021/06/19 04:27:21;;;;;;;8.32;4.80;;;;;;;27.18;41.14;99641.16;4483493;32;33802;-64
2021/06/19 04:29:49;;;;;;;8.40;4.45;;;;;;;27.20;41.24;99649.13;4482901;32;33306;-64
2021/06/19 04:32:18;;;;;;;6.43;4.60;;;;;;;27.17;41.63;99647.72;4483911;32;33495;-64
2021/06/19 04:34:45;;;;;;;8.20;4.35;;;;;;;27.17;41.65;99647.72;4482153;32;33825;-64
2021/06/19 04:37:14;;;;;;;9.07;4.65;;;;;;;27.19;41.43;99650.22;4483342;32;33554;-64
2021/06/19 04:39:55;;;;;;;7.97;4.90;;;;;;;27.19;41.55;99651.06;4483672;32;33873;-65
2021/06/19 04:42:24;;;;;;;7.95;4.50;;;;;;;27.20;41.42;99649.13;4483611;32;33758;-65
2021/06/19 04:45:02;;;;;;;7.32;4.35;;;;;;;27.20;41.64;99654.62;4483247;32;33831;-68
2021/06/19 04:47:33;;;;;;;8.50;4.60;;;;;;;27.19;41.77;99648.31;4483462;32;34386;-66
2021/06/19 04:50:03;;;;;;;7.93;4.62;;;;;;;27.22;41.63;99644.22;4483506;32;33026;-66
2021/06/19 04:52:32;;;;;;;7.75;4.57;;;;;;;27.21;41.77;99645.31;4483675;32;33600;-64
2021/06/19 04:55:01;;;;;;;9.85;4.60;;;;;;;27.23;41.92;99648.59;4482966;32;34840;-66
2021/06/19 04:57:29;;;;;;;7.47;4.43;;;;;;;27.23;41.75;99642.31;4483602;32;33496;-66
2021/06/19 04:59:57;;;;;;;8.73;4.45;;;;;;;27.21;41.76;99646.12;4482291;32;33249;-66
2021/06/19 05:02:25;;;;;;;8.02;4.80;;;;;;;27.21;41.92;99642.56;4483317;32;33819;-66
2021/06/19 05:04:52;;;;;;;9.63;4.62;;;;;;;27.19;42.08;99642.84;4483227;32;33836;-66
2021/06/19 05:07:20;;;;;;;9.73;5.05;;;;;;;27.20;41.75;99655.44;4483163;32;33745;-65
2021/06/19 05:09:48;;;;;;;17.58;4.85;;;;;;;27.20;41.59;99652.69;4482357;32;34170;-65
2021/06/19 05:12:15;;;;;;;11.93;4.60;;;;;;;27.21;41.85;99661.75;4483590;32;33155;-66
2021/06/19 05:14:43;;;;;;;17.70;5.10;;;;;;;27.21;41.86;99656.25;4482970;32;33802;-67
2021/06/19 05:17:11;;;;;;;12.18;5.28;;;;;;;27.21;41.83;99657.09;4483090;32;33825;-67
2021/06/19 05:19:39;;;;;;;13.43;4.93;;;;;;;27.21;41.93;99659.81;4483229;32;33414;-66
2021/06/19 05:22:06;;;;;;;11.48;4.95;;;;;;;27.21;41.87;99653.53;4483541;32;33089;-67
2021/06/19 05:24:34;;;;;;;19.80;5.20;;;;;;;27.21;41.84;99651.59;4482598;32;33788;-67
2021/06/19 05:27:02;;;;;;;11.20;4.97;;;;;;;27.23;41.82;99656.81;4483081;32;33857;-67
2021/06/19 05:29:30;;;;;;;17.17;5.00;;;;;;;27.22;41.77;99649.69;4482965;32;33249;-67
2021/06/19 05:31:57;;;;;;;12.52;5.00;;;;;;;27.21;41.76;99653.53;4482917;32;33462;-66
2021/06/19 05:34:27;;;;;;;11.38;5.28;;;;;;;27.21;41.72;99653.53;4482687;32;33978;-66
2021/06/19 05:36:54;;;;;;;13.35;4.62;;;;;;;27.23;41.75;99656.81;4482184;32;34653;-67
2021/06/19 05:39:22;;;;;;;24.48;5.90;;;;;;;27.22;41.75;99652.44;4480586;32;34078;-66
2021/06/19 05:41:50;;;;;;;12.13;4.93;;;;;;;27.23;41.76;99659.56;4482884;32;33944;-66
2021/06/19 05:44:17;;;;;;;12.07;4.85;;;;;;;27.21;41.81;99654.34;4482919;32;34480;-67
2021/06/19 05:46:45;;;;;;;11.55;4.30;;;;;;;27.21;41.71;99657.09;4482704;32;33856;-67
2021/06/19 05:49:13;;;;;;;12.18;4.70;;;;;;;27.20;41.70;99657.34;4482604;32;33322;-66
2021/06/19 05:51:40;;;;;;;9.05;4.82;;;;;;;27.23;41.65;99667.78;4481741;32;33859;-67
2021/06/19 05:54:08;;;;;;;7.32;4.57;;;;;;;27.20;41.66;99660.91;4482591;32;35382;-67
2021/06/19 05:56:36;;;;;;;7.07;4.65;;;;;;;27.21;41.61;99667.22;4482765;32;33729;-67
2021/06/19 05:59:03;;;;;;;7.97;4.55;;;;;;;27.21;41.55;99662.56;4482487;32;33233;-67
2021/06/19 06:01:31;;;;;;;9.20;4.25;;;;;;;27.23;41.51;99669.69;4482527;32;34640;-66
2021/06/19 06:03:59;;;;;;;11.10;5.18;;;;;;;27.21;41.57;99664.47;4482740;32;33723;-67
2021/06/19 06:06:27;;;;;;;12.18;4.95;;;;;;;27.20;41.57;99668.31;4482541;32;34568;-66
2021/06/19 06:08:54;;;;;;;8.05;4.70;;;;;;;27.22;41.54;99671.59;4482419;32;34024;-67
2021/06/19 06:11:22;;;;;;;8.18;4.40;;;;;;;27.20;41.57;99671.88;4483817;32;33685;-66
2021/06/19 06:13:50;;;;;;;7.37;4.40;;;;;;;27.21;41.54;99675.44;4484853;32;33860;-66
2021/06/19 06:16:17;;;;;;;8.40;4.35;;;;;;;27.21;41.51;99664.47;4484556;32;34827;-67
2021/06/19 06:18:45;;;;;;;7.85;4.65;;;;;;;27.20;41.46;99662.84;4484895;32;33455;-67
2021/06/19 06:21:12;;;;;;;8.25;4.30;;;;;;;27.20;41.46;99665.56;4484929;32;34533;-67
2021/06/19 06:23:40;;;;;;;10.70;5.03;;;;;;;27.19;41.46;99662.00;4484803;32;33716;-67
2021/06/19 06:26:08;;;;;;;7.40;4.82;;;;;;;27.19;41.45;99662.00;4484554;32;34657;-67
2021/06/19 06:28:38;;;;;;;7.87;4.45;;;;;;;27.19;41.44;99656.53;4482893;31;34482;-65
2021/06/19 06:31:05;;;;;;;7.05;4.70;;;;;;;27.19;41.44;99651.06;4482148;32;33758;-65
2021/06/19 06:33:33;;;;;;;12.00;5.00;;;;;;;27.21;41.40;99659.00;4476187;32;34120;-65
2021/06/19 06:36:01;;;;;;;8.60;5.10;;;;;;;27.20;41.41;99654.62;4484565;32;33674;-65
2021/06/19 06:38:28;;;;;;;8.43;4.85;;;;;;;27.21;41.32;99659.00;4470742;32;33238;-65
2021/06/19 06:40:56;;;;;;;6.78;4.15;;;;;;;27.20;41.32;99655.44;4454994;32;33844;-66
2021/06/19 06:43:23;;;;;;;10.50;5.05;;;;;;;27.21;41.28;99646.12;4468935;32;33640;-65
2021/06/19 06:45:51;;;;;;;7.87;4.30;;;;;;;27.20;41.26;99647.22;4471265;32;33564;-65
2021/06/19 06:48:19;;;;;;;8.55;4.40;;;;;;;27.21;41.23;99653.53;4484550;32;34000;-65
2021/06/19 06:50:47;;;;;;;9.10;4.80;;;;;;;27.21;41.22;99654.34;4484449;32;33752;-65
2021/06/19 06:53:14;;;;;;;8.60;4.82;;;;;;;27.21;41.23;99653.53;4484616;32;35086;-65
2021/06/19 06:55:42;;;;;;;9.35;4.82;;;;;;;27.21;41.25;99648.88;4484579;32;33775;-65
2021/06/19 06:58:09;;;;;;;7.28;4.68;;;;;;;27.21;41.22;99650.78;4484358;32;34281;-66
2021/06/19 07:00:37;;;;;;;6.75;4.68;;;;;;;27.24;41.20;99646.72;4484574;32;33869;-65
2021/06/19 07:03:05;;;;;;;7.78;4.20;;;;;;;27.22;41.18;99638.75;4484338;32;33923;-65
2021/06/19 07:05:32;;;;;;;6.05;4.37;;;;;;;27.24;41.27;99644.81;4483209;32;33306;-66
2021/06/19 07:08:00;;;;;;;6.18;4.70;;;;;;;27.25;41.20;99646.47;4484535;32;33275;-65
2021/06/19 07:10:29;;;;;;;9.77;4.62;;;;;;;27.28;41.20;99645.09;4484451;32;33888;-65
2021/06/19 07:12:56;;;;;;;8.02;4.80;;;;;;;27.29;41.15;99644.88;4484299;32;33776;-65
2021/06/19 07:15:24;;;;;;;6.75;4.22;;;;;;;27.27;41.30;99636.06;4484664;32;33961;-65
2021/06/19 07:17:52;;;;;;;8.32;4.20;;;;;;;27.30;41.21;99645.69;4484365;32;33337;-65
2021/06/19 07:20:19;;;;;;;7.05;4.40;;;;;;;27.32;41.11;99643.50;4484308;32;33923;-65
2021/06/19 07:22:47;;;;;;;7.97;5.30;;;;;;;27.34;41.05;99644.09;4484305;32;33727;-65
2021/06/19 07:25:15;;;;;;;7.28;4.20;;;;;;;27.34;41.07;99641.34;4484450;32;34892;-65
2021/06/19 07:27:47;;;;;;;5.87;4.20;;;;;;;27.35;41.08;99656.69;4483252;32;33239;-65
2021/06/19 07:30:15;;;;;;;8.27;4.40;;;;;;;27.37;41.06;99651.78;4484264;32;33555;-65
2021/06/19 07:32:43;;;;;;;7.20;4.20;;;;;;;27.37;41.06;99652.63;4484478;32;33710;-65
2021/06/19 07:35:11;;;;;;;8.23;4.10;;;;;;;27.38;41.04;99645.25;4484248;32;33768;-65
2021/06/19 07:37:40;;;;;;;6.53;4.70;;;;;;;27.39;41.06;99649.63;4484339;32;34800;-65
2021/06/19 07:40:08;;;;;;;7.43;4.50;;;;;;;27.41;41.00;99641.97;4484519;32;34561;-65
2021/06/19 07:42:36;;;;;;;6.57;4.35;;;;;;;27.42;41.02;99646.38;4483883;32;33453;-65
2021/06/19 07:45:04;;;;;;;10.40;5.20;;;;;;;27.42;41.00;99639.00;4484252;32;34433;-65
2021/06/19 07:47:32;;;;;;;6.82;4.60;;;;;;;27.42;41.13;99635.44;4484156;32;33358;-65
2021/06/19 07:50:00;;;;;;;5.95;4.30;;;;;;;27.42;41.04;99633.50;4482939;32;33781;-65
2021/06/19 07:52:28;;;;;;;6.55;4.12;;;;;;;27.44;41.02;99635.97;4484259;32;33865;-65
2021/06/19 07:54:56;;;;;;;6.95;4.18;;;;;;;27.44;41.11;99631.31;4484017;32;33142;-65
2021/06/19 07:57:23;;;;;;;9.55;5.25;;;;;;;27.45;41.11;99634.91;4484216;32;33294;-65
2021/06/19 07:59:51;;;;;;;7.55;4.40;;;;;;;27.46;41.17;99633.81;4484319;32;33699;-65
2021/06/19 08:02:19;;;;;;;6.95;5.00;;;;;;;27.45;41.14;99635.72;4483992;32;33920;-65
2021/06/19 08:04:47;;;;;;;6.87;4.60;;;;;;;27.47;41.19;99632.75;4483968;32;33402;-65
2021/06/19 08:07:15;;;;;;;9.18;4.72;;;;;;;27.48;41.15;99626.16;4482803;32;33334;-65
2021/06/19 08:09:42;;;;;;;6.70;4.05;;;;;;;27.48;41.07;99630.81;4481003;32;33753;-65
2021/06/19 08:12:10;;;;;;;6.65;4.35;;;;;;;27.49;41.10;99627.81;4483587;32;34656;-65
2021/06/19 08:14:38;;;;;;;8.50;4.32;;;;;;;27.50;41.19;99625.91;4479874;32;34788;-66
2021/06/19 08:17:25;;;;;;;6.57;4.62;;;;;;;27.51;41.19;99619.31;4481863;32;33254;-65
2021/06/19 08:19:53;;;;;;;8.07;4.70;;;;;;;27.52;41.21;99621.00;4482825;32;33835;-65
2021/06/19 08:22:20;;;;;;;7.47;4.90;;;;;;;27.53;41.31;99615.25;4482432;32;33842;-65
2021/06/19 08:24:49;;;;;;;12.77;5.22;;;;;;;27.54;41.40;99622.38;4482734;32;33828;-65
2021/06/19 08:27:22;;;;;;;9.02;5.15;;;;;;;27.56;41.37;99622.13;4483917;32;33300;-65
2021/06/19 08:29:50;;;;;;;8.13;5.05;;;;;;;27.56;41.42;99617.50;4483657;31;33753;-65
2021/06/19 08:32:18;;;;;;;17.08;5.93;;;;;;;27.57;41.38;99624.62;4468025;32;33402;-71
2021/06/19 08:34:45;;;;;;;6.25;4.68;;;;;;;27.56;41.66;99613.91;4466346;32;33690;-71
2021/06/19 08:37:13;;;;;;;12.00;5.37;;;;;;;27.58;41.53;99615.31;4468249;32;33381;-71
2021/06/19 08:39:41;;;;;;;8.27;5.18;;;;;;;27.59;41.70;99619.69;4468202;32;33595;-71
2021/06/19 08:42:08;;;;;;;11.07;5.20;;;;;;;27.58;41.71;99612.56;4468157;32;34547;-70
2021/06/19 08:44:36;;;;;;;10.02;5.65;;;;;;;27.58;41.64;99607.09;4469243;32;33637;-71
2021/06/19 08:47:05;;;;;;;11.43;5.37;;;;;;;27.59;41.62;99616.12;4483658;32;33258;-68
2021/06/19 08:49:32;;;;;;;11.50;4.97;;;;;;;27.58;41.51;99614.47;4482638;32;33731;-67
2021/06/19 08:52:00;;;;;;;11.50;4.75;;;;;;;27.58;41.72;99615.31;4482145;32;33382;-68
2021/06/19 08:54:38;;;;;;;12.52;5.37;;;;;;;27.59;41.70;99627.09;4483593;32;33743;-68
2021/06/19 08:57:06;;;;;;;13.15;5.03;;;;;;;27.57;41.86;99619.13;4483932;32;34043;-67
2021/06/19 08:59:35;;;;;;;12.43;5.35;;;;;;;27.58;41.84;99609.00;4483442;32;33763;-67
2021/06/19 09:02:03;;;;;;;11.93;4.72;;;;;;;27.58;41.87;99609.00;4483577;32;33547;-67
2021/06/19 09:04:30;;;;;;;10.15;4.95;;;;;;;27.59;41.91;99605.16;4483195;32;33758;-68
2021/06/19 09:06:58;;;;;;;12.45;5.53;;;;;;;27.59;41.91;99614.22;4480780;32;33286;-69
2021/06/19 09:09:26;;;;;;;14.73;4.90;;;;;;;27.58;41.96;99619.97;4483364;32;33669;-71
2021/06/19 09:11:53;;;;;;;15.80;4.55;;;;;;;27.57;41.98;99612.84;4481899;32;33451;-67
2021/06/19 09:14:25;;;;;;;11.12;5.15;;;;;;;27.58;41.79;99618.06;4483049;32;33689;-71
2021/06/19 09:16:59;;;;;;;9.27;4.80;;;;;;;27.56;41.84;99609.28;4483136;32;33450;-71
2021/06/19 09:19:46;;;;;;;13.30;4.72;;;;;;;27.56;41.80;99606.53;4483435;32;33605;-70
2021/06/19 09:22:13;;;;;;;13.32;4.70;;;;;;;27.56;41.71;99611.16;4481684;32;34866;-70
2021/06/19 09:24:48;;;;;;;9.65;4.28;;;;;;;27.56;41.66;99617.50;4483210;32;33811;-67
2021/06/19 09:27:38;;;;;;;7.95;4.90;;;;;;;27.56;41.64;99620.22;4483290;32;32902;-71
2021/06/19 09:30:06;;;;;;;9.35;4.87;;;;;;;27.57;41.65;99613.66;4482417;32;33763;-68
2021/06/19 09:32:34;;;;;;;8.52;4.57;;;;;;;27.55;41.69;99609.50;4483252;32;33854;-70
2021/06/19 09:35:25;;;;;;;10.27;4.53;;;;;;;27.54;41.74;99605.94;4482911;32;34704;-70
2021/06/19 09:37:54;;;;;;;10.93;4.22;;;;;;;27.56;41.63;99608.41;4483136;32;33279;-68
2021/06/19 09:40:41;;;;;;;9.82;5.00;;;;;;;27.53;41.56;99606.22;4481889;32;34532;-68
2021/06/19 09:43:23;;;;;;;9.50;4.40;;;;;;;27.54;41.55;99605.94;4482995;32;33819;-69
2021/06/19 09:46:08;;;;;;;8.43;4.50;;;;;;;27.53;41.54;99601.56;4466712;32;34379;-70
2021/06/19 09:48:46;;;;;;;9.80;4.82;;;;;;;27.54;41.57;99599.63;4468042;32;33277;-69
2021/06/19 09:51:22;;;;;;;7.30;4.50;;;;;;;27.53;41.62;99595.25;4469361;32;34519;-71
2021/06/19 09:54:03;;;;;;;11.02;4.97;;;;;;;27.52;41.49;99596.34;4469108;32;33772;-70
2021/06/19 09:56:45;;;;;;;9.15;4.87;;;;;;;27.50;41.51;99588.34;4469480;32;34686;-71
2021/06/19 09:59:29;;;;;;;9.10;4.15;;;;;;;27.52;41.51;99596.34;4468033;32;33296;-70
2021/06/19 10:01:57;;;;;;;7.32;3.97;;;;;;;27.51;41.54;99597.41;4469399;32;33934;-66
2021/06/19 10:04:26;;;;;;;6.90;4.50;;;;;;;27.49;41.49;99597.69;4467945;32;33867;-71
2021/06/19 10:06:54;;;;;;;8.52;4.65;;;;;;;27.50;41.46;99593.84;4467981;32;33633;-71
2021/06/19 10:09:22;;;;;;;7.90;4.22;;;;;;;27.49;41.48;99580.41;4469342;32;33437;-65
2021/06/19 10:11:53;;;;;;;10.10;4.85;;;;;;;27.50;41.42;99584.78;4469109;32;33604;-68
2021/06/19 10:14:23;;;;;;;9.52;4.78;;;;;;;27.49;41.41;99588.63;4467970;32;33787;-71
2021/06/19 10:16:54;;;;;;;9.90;4.00;;;;;;;27.49;41.40;99581.22;4469300;32;33879;-69
2021/06/19 10:19:24;;;;;;;7.30;4.37;;;;;;;27.48;41.44;99579.59;4481922;32;33313;-69
2021/06/19 10:21:54;;;;;;;10.10;4.30;;;;;;;27.49;41.36;99586.72;4484821;32;33772;-71
2021/06/19 10:24:23;;;;;;;8.02;4.60;;;;;;;27.50;41.36;99579.31;4484834;32;33871;-69
2021/06/19 10:26:51;;;;;;;8.23;4.22;;;;;;;27.49;41.32;99581.22;4484863;32;33820;-71
2021/06/19 10:29:23;;;;;;;8.25;4.45;;;;;;;27.50;41.33;99582.87;4483788;32;33283;-71
2021/06/19 10:31:51;;;;;;;9.35;4.32;;;;;;;27.49;41.33;99581.22;4470415;32;33843;-67
2021/06/19 10:34:24;;;;;;;7.45;4.37;;;;;;;27.49;41.34;99583.16;4470730;32;33956;-71
2021/06/19 10:36:56;;;;;;;6.47;4.18;;;;;;;27.49;41.38;99580.41;4484700;32;34355;-65
2021/06/19 10:39:30;;;;;;;8.30;4.37;;;;;;;27.48;41.36;99579.59;4484160;32;33274;-70
2021/06/19 10:41:57;;;;;;;6.12;4.37;;;;;;;27.49;41.37;99578.50;4484665;32;33763;-70
2021/06/19 10:44:54;;;;;;;6.62;4.22;;;;;;;27.48;41.36;99576.84;4484221;32;33594;-71
2021/06/19 10:47:23;;;;;;;8.48;4.35;;;;;;;27.51;41.29;99575.47;4484558;32;34811;-71
2021/06/19 10:49:51;;;;;;;6.93;4.47;;;;;;;27.48;41.35;99548.63;4483351;32;34815;-69
2021/06/19 10:52:29;;;;;;;5.80;3.90;;;;;;;27.49;41.34;99551.09;4484536;32;33875;-71
2021/06/19 10:55:09;;;;;;;8.98;4.07;;;;;;;27.49;41.32;99544.78;4483272;32;34541;-70
2021/06/19 10:57:44;;;;;;;7.32;4.07;;;;;;;27.49;41.32;99544.78;4484433;32;34755;-68
2021/06/19 11:00:31;;;;;;;9.63;4.57;;;;;;;27.48;41.34;99534.91;4484521;32;34080;-69
2021/06/19 11:03:01;;;;;;;7.53;3.97;;;;;;;27.49;41.29;99525.59;4483175;32;34228;-68
2021/06/19 11:05:52;;;;;;;7.12;4.12;;;;;;;27.46;41.31;99524.19;4484048;32;34341;-68
2021/06/19 11:08:20;;;;;;;8.02;4.43;;;;;;;27.49;41.25;99520.94;4476655;32;33796;-65
2021/06/19 11:10:52;;;;;;;5.60;3.90;;;;;;;27.47;41.24;99517.66;4482702;32;34178;-69
2021/06/19 11:13:29;;;;;;;5.35;3.65;;;;;;;27.45;41.29;99549.94;4484208;32;33779;-65
2021/06/19 11:16:03;;;;;;;8.32;3.75;;;;;;;27.47;41.25;99550.53;4484021;32;33793;-67
2021/06/19 11:18:49;;;;;;;6.65;4.03;;;;;;;27.47;41.36;99539.56;4484375;32;33714;-65
2021/06/19 11:21:23;;;;;;;7.68;4.12;;;;;;;27.50;41.42;99541.78;4483734;32;34186;-70
2021/06/19 11:23:59;;;;;;;6.22;3.95;;;;;;;27.48;41.49;99543.97;4484476;32;33652;-70
2021/06/19 11:27:01;;;;;;;6.82;3.62;;;;;;;27.51;41.51;99542.59;4484368;32;33915;-69
2021/06/19 11:29:39;;;;;;;6.75;3.60;;;;;;;27.53;41.42;99535.78;4484265;32;33388;-70
2021/06/19 11:32:35;;;;;;;7.43;3.85;;;;;;;27.52;41.50;99534.13;4484361;32;33243;-68
2021/06/19 11:35:19;;;;;;;8.43;3.87;;;;;;;27.54;41.50;99536.59;4484035;32;34648;-69
2021/06/19 11:37:56;;;;;;;6.30;3.80;;;;;;;27.50;41.55;99527.25;4484329;32;33794;-67
2021/06/19 11:40:30;;;;;;;5.57;3.58;;;;;;;27.53;41.58;99534.97;4467074;32;33794;-67
2021/06/19 11:42:58;;;;;;;6.05;3.67;;;;;;;27.51;41.61;99529.72;4483354;32;33387;-69